Time;durP1;ratioP1;P1;durP2;ratioP2;P2;SDS_P1;SDS_P2;PMS_P1;PMS_P2;Temp;Humidity;BMP_temperature;BMP_pressure;BME280_temperature;BME280_humidity;BME280_pressure;Samples;Min_cycle;Max_cycle;Signal;HPM_P1;HPM_P2
2022/08/09 00:01:31;;;;;;;2.90;2.10;;;;;;;23.89;37.74;94064.34;5069541;28;20650;-75
2022/08/09 00:03:57;;;;;;;2.60;2.30;;;;;;;23.84;37.50;94054.66;5065073;28;20107;-76
2022/08/09 00:06:23;;;;;;;3.70;2.20;;;;;;;23.63;37.73;94041.09;5064997;28;20019;-75
2022/08/09 00:08:49;;;;;;;4.30;2.53;;;;;;;23.71;37.96;94052.75;5068780;28;20032;-75
2022/08/09 00:11:16;;;;;;;3.25;2.55;;;;;;;23.67;37.88;94052.72;5066057;28;20078;-75
2022/08/09 00:13:42;;;;;;;3.63;2.35;;;;;;;23.56;38.11;94052.75;5067878;28;20032;-75
2022/08/09 00:16:08;;;;;;;2.47;2.10;;;;;;;23.55;37.96;94055.88;5069703;28;20445;-75
2022/08/09 00:18:33;;;;;;;2.65;2.00;;;;;;;23.39;38.19;94036.44;5068895;28;20471;-75
2022/08/09 00:21:01;;;;;;;4.72;2.72;;;;;;;23.36;38.53;94048.09;5067665;28;20055;-75
2022/08/09 00:23:27;;;;;;;3.13;2.50;;;;;;;23.39;38.20;94055.44;5070245;28;20496;-75
2022/08/09 00:25:52;;;;;;;2.95;2.65;;;;;;;23.34;38.39;94058.56;5066346;28;20504;-75
2022/08/09 00:28:18;;;;;;;3.40;2.40;;;;;;;23.23;38.83;94046.91;5069787;28;20021;-75
2022/08/09 00:30:43;;;;;;;4.68;2.53;;;;;;;23.17;38.95;94052.72;5064737;28;20376;-74
2022/08/09 00:33:08;;;;;;;3.65;3.00;;;;;;;23.24;38.85;94051.19;5067903;28;20543;-75
2022/08/09 00:35:34;;;;;;;3.03;2.60;;;;;;;23.11;39.11;94032.59;5065859;28;20396;-75
2022/08/09 00:37:59;;;;;;;3.33;2.55;;;;;;;23.23;38.79;94041.47;5068715;28;20071;-75
2022/08/09 00:40:25;;;;;;;3.95;2.70;;;;;;;23.30;38.95;94061.28;5067937;28;20408;-75
2022/08/09 00:42:50;;;;;;;2.92;2.63;;;;;;;23.31;39.03;94056.63;5048355;28;20453;-74
2022/08/09 00:45:15;;;;;;;3.92;2.92;;;;;;;23.22;39.71;94053.53;5066622;28;20025;-75
2022/08/09 00:47:41;;;;;;;2.83;2.58;;;;;;;23.28;39.58;94063.59;5067505;28;20028;-75
2022/08/09 00:50:07;;;;;;;3.00;2.75;;;;;;;23.17;39.75;94050.00;5067922;28;20107;-75
2022/08/09 00:52:32;;;;;;;2.65;2.40;;;;;;;23.25;39.80;94071.72;5068102;28;20024;-75
2022/08/09 00:54:59;;;;;;;3.05;2.45;;;;;;;23.21;39.81;94068.25;5068902;28;20020;-75
2022/08/09 00:57:24;;;;;;;4.53;3.00;;;;;;;22.98;40.01;94066.66;5065706;28;20048;-75
2022/08/09 00:59:50;;;;;;;3.97;3.20;;;;;;;23.07;40.26;94075.19;5069431;28;20107;-75
2022/08/09 01:02:19;;;;;;;3.20;2.95;;;;;;;23.15;39.95;94087.63;5067716;28;20034;-75
2022/08/09 01:05:06;;;;;;;2.92;2.63;;;;;;;23.19;40.28;94087.63;5068803;28;20023;-75
2022/08/09 01:08:07;;;;;;;6.68;3.08;;;;;;;23.17;39.99;94081.81;5065730;28;20033;-75
2022/08/09 01:10:43;;;;;;;4.40;2.80;;;;;;;23.15;40.68;94082.19;5050186;28;20419;-75
2022/08/09 01:13:21;;;;;;;3.25;2.67;;;;;;;23.17;40.34;94089.19;5069274;28;20033;-74
2022/08/09 01:15:51;;;;;;;3.53;2.90;;;;;;;23.06;40.57;94072.88;5067100;28;20021;-74
2022/08/09 01:18:20;;;;;;;4.07;2.30;;;;;;;23.06;40.19;94073.66;5069292;28;20042;-75
2022/08/09 01:20:54;;;;;;;3.42;2.92;;;;;;;23.05;40.02;94076.75;5066883;28;20029;-74
2022/08/09 01:23:51;;;;;;;4.05;3.10;;;;;;;23.03;40.26;94073.63;5064678;28;20028;-75
2022/08/09 01:26:32;;;;;;;4.97;2.40;;;;;;;23.07;40.17;94074.44;5053938;28;20032;-75
2022/08/09 01:29:00;;;;;;;3.15;2.70;;;;;;;23.11;40.56;94069.78;5067653;28;20042;-75
2022/08/09 01:31:27;;;;;;;5.07;2.90;;;;;;;23.08;40.80;94056.97;5067502;28;20032;-75
2022/08/09 01:33:57;;;;;;;2.83;2.50;;;;;;;23.00;41.11;94039.94;5067977;28;20031;-75
2022/08/09 01:36:25;;;;;;;3.88;2.63;;;;;;;23.17;40.76;94063.56;5066195;28;20032;-76
2022/08/09 01:38:51;;;;;;;3.35;3.05;;;;;;;23.11;41.22;94058.94;5068733;28;20032;-75
2022/08/09 01:41:28;;;;;;;3.10;2.40;;;;;;;23.11;40.84;94056.22;5064527;28;20071;-75
2022/08/09 01:43:58;;;;;;;3.22;2.92;;;;;;;23.11;41.30;94053.50;5050231;28;20389;-75
2022/08/09 01:46:36;;;;;;;5.30;2.40;;;;;;;23.08;42.05;94044.19;5066182;28;20400;-74
2022/08/09 01:49:08;;;;;;;3.03;2.55;;;;;;;23.05;41.79;94030.63;5067295;28;20555;-75
2022/08/09 01:51:36;;;;;;;4.68;2.75;;;;;;;23.06;41.66;94019.41;5065507;28;20074;-75
2022/08/09 01:54:04;;;;;;;5.25;3.22;;;;;;;22.99;41.34;93996.91;5051590;28;20035;-75
2022/08/09 01:56:31;;;;;;;3.50;2.72;;;;;;;22.97;41.56;93991.91;5064662;28;20056;-75
2022/08/09 01:59:00;;;;;;;4.45;3.10;;;;;;;22.99;41.49;93981.44;5068700;28;20077;-75
2022/08/09 02:01:27;;;;;;;3.92;2.30;;;;;;;23.04;39.93;93986.47;5068131;28;20024;-75
2022/08/09 02:03:55;;;;;;;3.40;2.75;;;;;;;23.02;39.79;93994.22;5064591;28;20419;-76
2022/08/09 02:07:07;;;;;;;4.28;3.00;;;;;;;23.13;40.37;94016.69;5067302;28;20028;-75
2022/08/09 02:09:10;;;;;;;4.53;3.13;;;;;;;23.10;40.70;94014.75;5064053;28;20202;-75
2022/08/09 02:11:35;;;;;;;3.60;2.55;;;;;;;23.06;40.45;93999.66;5065762;28;20028;-75
2022/08/09 02:14:04;;;;;;;4.07;3.10;;;;;;;23.00;40.51;94020.94;5063927;28;20027;-75
2022/08/09 02:16:34;;;;;;;3.92;2.78;;;;;;;22.97;41.30;94024.44;5066124;28;20028;-75
2022/08/09 02:19:00;;;;;;;5.45;3.00;;;;;;;22.73;41.42;94023.19;5063757;28;20024;-75
2022/08/09 02:21:32;;;;;;;4.55;3.58;;;;;;;22.71;41.49;94005.78;5065777;28;20349;-75
2022/08/09 02:24:00;;;;;;;4.38;2.75;;;;;;;22.83;40.88;94037.94;5064775;28;20043;-75
2022/08/09 02:26:28;;;;;;;3.55;3.03;;;;;;;22.66;40.90;94034.03;5067560;28;20020;-75
2022/08/09 02:28:58;;;;;;;3.97;2.72;;;;;;;22.59;41.32;94033.25;5066308;28;20024;-75
2022/08/09 02:31:29;;;;;;;4.38;2.92;;;;;;;22.55;41.08;94016.97;5068126;28;20034;-75
2022/08/09 02:34:00;;;;;;;3.75;3.20;;;;;;;22.86;40.67;94045.34;5067749;28;20460;-75
2022/08/09 02:36:39;;;;;;;3.47;2.90;;;;;;;22.76;40.92;94042.59;5068151;28;20028;-75
2022/08/09 02:39:07;;;;;;;3.80;3.40;;;;;;;22.84;41.08;94044.91;5061887;28;20028;-75
2022/08/09 02:41:44;;;;;;;3.00;2.67;;;;;;;22.86;41.38;94047.25;5062885;28;20049;-75
2022/08/09 02:44:19;;;;;;;4.72;4.00;;;;;;;22.99;41.64;94057.38;5068734;28;20441;-75
2022/08/09 02:46:48;;;;;;;4.43;3.45;;;;;;;23.05;41.32;94060.47;5077195;28;20480;-75
2022/08/09 02:49:15;;;;;;;4.43;3.30;;;;;;;23.08;41.93;94055.03;5065211;28;20032;-75
2022/08/09 02:51:43;;;;;;;5.53;3.25;;;;;;;23.13;41.90;94057.38;5065333;28;20029;-76
2022/08/09 02:54:14;;;;;;;3.92;3.33;;;;;;;23.09;41.21;94051.19;5067233;28;20024;-75
2022/08/09 02:56:45;;;;;;;3.58;3.22;;;;;;;23.06;40.99;94045.75;5067486;28;20047;-75
2022/08/09 02:59:13;;;;;;;3.97;3.30;;;;;;;23.08;41.47;94044.19;5066782;28;20058;-75
2022/08/09 03:01:40;;;;;;;5.55;3.53;;;;;;;23.09;42.56;94047.69;5063112;28;20603;-75
2022/08/09 03:04:08;;;;;;;4.45;3.40;;;;;;;22.98;42.28;94044.97;5067621;28;20020;-75
2022/08/09 03:06:35;;;;;;;4.25;3.00;;;;;;;22.76;42.96;94031.72;5065639;28;20034;-75
2022/08/09 03:09:01;;;;;;;6.68;4.55;;;;;;;22.88;42.92;94053.84;5066603;28;20135;-75
2022/08/09 03:11:27;;;;;;;3.53;3.22;;;;;;;22.90;43.00;94065.09;5068146;28;20021;-74
2022/08/09 03:13:54;;;;;;;4.32;3.58;;;;;;;22.86;42.85;94048.06;5049396;28;20028;-75
2022/08/09 03:16:21;;;;;;;4.30;3.53;;;;;;;22.75;42.88;94030.97;5067344;28;20020;-75
2022/08/09 03:18:47;;;;;;;3.58;3.28;;;;;;;22.42;43.61;94006.88;5065646;28;20027;-75
2022/08/09 03:21:18;;;;;;;5.65;4.07;;;;;;;22.74;43.18;94048.38;5050238;28;20021;-74
2022/08/09 03:23:45;;;;;;;3.63;3.17;;;;;;;22.72;42.97;94054.22;5064280;28;20020;-75
2022/08/09 03:26:14;;;;;;;4.35;3.28;;;;;;;22.70;43.32;94050.31;5066341;28;20559;-75
2022/08/09 03:28:41;;;;;;;7.38;3.50;;;;;;;22.65;43.40;94053.41;5064735;28;20023;-75
2022/08/09 03:31:07;;;;;;;4.90;3.63;;;;;;;22.59;43.46;94057.63;5068722;28;20028;-75
2022/08/09 03:33:34;;;;;;;5.43;3.15;;;;;;;22.54;43.48;94053.38;5068259;28;20048;-75
2022/08/09 03:36:01;;;;;;;4.00;3.00;;;;;;;22.50;43.57;94051.81;5068246;28;20036;-75
2022/08/09 03:38:26;;;;;;;4.40;3.28;;;;;;;22.45;43.59;94041.34;5067322;28;20019;-75
2022/08/09 03:40:52;;;;;;;4.95;3.03;;;;;;;22.45;43.45;94044.03;5066851;28;20088;-75
2022/08/09 03:43:17;;;;;;;4.15;3.10;;;;;;;22.35;43.62;94036.66;5050245;28;20081;-74
2022/08/09 03:45:42;;;;;;;3.28;2.92;;;;;;;22.48;43.44;94059.56;5068915;28;20480;-75
2022/08/09 03:48:08;;;;;;;6.13;3.08;;;;;;;22.49;43.37;94066.50;5067512;28;20032;-76
2022/08/09 03:50:36;;;;;;;5.15;3.15;;;;;;;22.43;43.23;94062.63;5069735;28;20016;-75
2022/08/09 03:53:03;;;;;;;3.90;2.85;;;;;;;22.41;43.31;94065.72;5070514;28;20028;-76
2022/08/09 03:55:29;;;;;;;6.05;3.53;;;;;;;22.28;43.65;94049.03;5067808;28;20036;-74
2022/08/09 03:57:56;;;;;;;4.80;3.30;;;;;;;22.42;43.82;94075.41;5067250;28;20035;-75
2022/08/09 04:00:22;;;;;;;5.80;4.25;;;;;;;22.37;43.82;94066.88;5065310;28;20408;-74
2022/08/09 04:02:48;;;;;;;4.65;3.97;;;;;;;22.27;43.24;94052.91;5070256;28;20047;-75
2022/08/09 04:05:14;;;;;;;6.63;3.75;;;;;;;22.24;43.11;94048.22;5066562;28;20024;-74
2022/08/09 04:07:39;;;;;;;5.15;3.42;;;;;;;22.34;43.03;94067.63;5066183;28;20036;-74
2022/08/09 04:10:05;;;;;;;6.45;4.20;;;;;;;22.26;43.21;94066.81;5067392;28;20034;-75
2022/08/09 04:12:42;;;;;;;3.60;3.05;;;;;;;22.29;43.33;94072.25;5070797;28;20028;-75
2022/08/09 04:15:08;;;;;;;4.40;3.20;;;;;;;22.32;43.29;94072.66;5069260;28;20036;-75
2022/08/09 04:17:34;;;;;;;3.70;3.30;;;;;;;22.26;43.23;94059.47;5066912;28;20036;-75
2022/08/09 04:19:59;;;;;;;4.80;3.63;;;;;;;22.42;43.81;94077.34;5070288;28;20017;-75
2022/08/09 04:22:25;;;;;;;3.47;3.17;;;;;;;22.46;44.18;94072.69;5068964;28;20028;-75
2022/08/09 04:24:50;;;;;;;3.67;3.30;;;;;;;22.54;44.09;94076.97;5067757;28;20085;-75
2022/08/09 04:27:16;;;;;;;4.22;3.38;;;;;;;22.60;44.31;94070.81;5067268;28;20031;-75
2022/08/09 04:29:41;;;;;;;4.30;3.33;;;;;;;22.66;44.35;94079.34;5051463;28;20078;-75
2022/08/09 04:32:06;;;;;;;6.97;2.95;;;;;;;22.71;44.92;94082.47;5069106;28;20536;-75
2022/08/09 04:34:33;;;;;;;4.40;3.70;;;;;;;22.63;43.97;94055.72;5049119;28;20021;-75
2022/08/09 04:36:59;;;;;;;4.10;3.70;;;;;;;22.84;44.66;94082.09;5066805;28;20333;-75
2022/08/09 04:39:25;;;;;;;4.07;3.28;;;;;;;22.42;44.30;94010.38;5069065;28;20028;-75
2022/08/09 04:41:50;;;;;;;4.15;3.20;;;;;;;22.93;44.63;94080.59;5067323;28;20551;-75
2022/08/09 04:44:16;;;;;;;3.50;2.65;;;;;;;23.02;44.85;94075.59;5068673;28;20085;-75
2022/08/09 04:46:41;;;;;;;3.38;3.03;;;;;;;23.11;44.55;94081.41;5047815;28;20548;-75
2022/08/09 04:49:07;;;;;;;4.55;3.38;;;;;;;22.87;44.13;94038.00;5069716;28;20052;-75
2022/08/09 04:51:33;;;;;;;8.20;3.22;;;;;;;23.02;43.99;94056.63;5068130;28;20939;-75
2022/08/09 04:53:58;;;;;;;3.90;3.47;;;;;;;23.30;42.81;94087.63;5069383;28;20129;-75
2022/08/09 04:56:24;;;;;;;3.58;2.83;;;;;;;23.25;43.33;94082.59;5066340;28;20024;-75
2022/08/09 04:58:49;;;;;;;5.53;3.75;;;;;;;23.18;42.70;94094.19;5067560;28;20590;-76
2022/08/09 05:01:14;;;;;;;7.05;4.53;;;;;;;23.34;42.53;94100.03;5065698;28;20086;-74
2022/08/09 05:03:40;;;;;;;4.90;4.28;;;;;;;23.21;42.03;94095.38;5065104;28;20031;-75
2022/08/09 05:06:06;;;;;;;6.15;4.22;;;;;;;22.88;42.25;94070.13;5068478;28;21425;-75
2022/08/09 05:08:33;;;;;;;5.05;3.42;;;;;;;23.08;42.12;94103.88;5065069;28;20111;-75
2022/08/09 05:11:00;;;;;;;5.30;4.20;;;;;;;23.05;42.46;94093.03;5064468;28;20019;-75
2022/08/09 05:13:25;;;;;;;5.43;4.90;;;;;;;23.13;42.01;94095.34;5066112;28;20694;-75
2022/08/09 05:15:51;;;;;;;9.73;4.10;;;;;;;23.32;41.93;94091.50;5067882;28;20029;-74
2022/08/09 05:18:16;;;;;;;5.88;4.18;;;;;;;23.39;41.69;94099.66;5051141;28;20609;-75
2022/08/09 05:20:42;;;;;;;6.53;4.53;;;;;;;23.25;41.58;94086.06;5063949;28;20625;-75
2022/08/09 05:23:07;;;;;;;5.82;4.40;;;;;;;23.06;41.18;94081.03;5070668;28;20028;-75
2022/08/09 05:25:33;;;;;;;5.10;4.15;;;;;;;23.11;41.32;94084.13;5064251;28;20012;-74
2022/08/09 05:27:58;;;;;;;6.90;4.75;;;;;;;23.22;41.65;94113.22;5067207;28;20396;-75
2022/08/09 05:30:24;;;;;;;10.40;4.45;;;;;;;23.03;41.58;94111.59;5067584;28;20059;-75
2022/08/09 05:32:49;;;;;;;6.05;4.55;;;;;;;23.17;41.68;94117.84;5064848;28;20027;-75
2022/08/09 05:35:14;;;;;;;6.32;4.07;;;;;;;23.30;41.74;94098.47;5050448;28;20028;-75
2022/08/09 05:37:40;;;;;;;6.22;5.10;;;;;;;23.42;41.95;94109.72;5069089;28;20059;-75
2022/08/09 05:40:06;;;;;;;8.98;5.45;;;;;;;23.52;42.03;94105.50;5049792;28;20044;-75
2022/08/09 05:42:32;;;;;;;7.43;5.47;;;;;;;23.68;41.32;94114.03;5054194;28;20024;-75
2022/08/09 05:44:59;;;;;;;4.45;4.03;;;;;;;23.63;41.77;94095.41;5049223;28;20078;-75
2022/08/09 05:47:26;;;;;;;8.05;4.68;;;;;;;23.73;40.92;94121.78;5068941;28;20059;-75
2022/08/09 05:49:53;;;;;;;8.98;5.00;;;;;;;23.79;41.29;94103.94;5070250;28;20384;-75
2022/08/09 05:52:18;;;;;;;6.00;4.50;;;;;;;23.82;41.16;94097.72;5068432;28;20039;-75
2022/08/09 05:54:44;;;;;;;6.57;4.53;;;;;;;24.00;40.74;94109.31;5068098;28;20677;-76
2022/08/09 05:57:09;;;;;;;6.55;4.70;;;;;;;23.97;40.28;94072.06;5062468;28;20028;-75
2022/08/09 05:59:35;;;;;;;6.20;4.80;;;;;;;24.14;39.80;94103.13;5061307;28;20437;-75
2022/08/09 06:02:00;;;;;;;10.15;4.90;;;;;;;24.26;40.28;94115.50;5061438;28;20036;-75
2022/08/09 06:04:25;;;;;;;7.60;5.53;;;;;;;23.75;40.30;94119.47;5063234;28;20017;-75
2022/08/09 06:06:51;;;;;;;7.53;5.80;;;;;;;23.99;40.84;94107.78;5061477;28;20059;-75
2022/08/09 06:09:18;;;;;;;6.00;5.03;;;;;;;24.20;40.62;94117.84;5060311;28;20032;-75
2022/08/09 06:11:44;;;;;;;9.88;5.97;;;;;;;23.71;40.75;94072.50;5041162;28;20035;-74
2022/08/09 06:14:10;;;;;;;9.15;7.43;;;;;;;24.31;40.41;94112.38;5062966;28;20025;-75
2022/08/09 06:16:35;;;;;;;7.93;6.55;;;;;;;24.43;40.12;94103.81;5066838;28;20031;-75
2022/08/09 06:19:01;;;;;;;8.15;7.35;;;;;;;24.49;40.22;94101.47;5062342;28;20039;-75
2022/08/09 06:21:26;;;;;;;7.22;6.53;;;;;;;24.18;40.28;94108.53;5065968;28;20028;-75
2022/08/09 06:23:51;;;;;;;9.45;6.45;;;;;;;24.14;40.54;94056.94;5065356;28;20559;-75
2022/08/09 06:26:18;;;;;;;10.80;6.13;;;;;;;24.43;40.36;94092.94;5063645;28;20061;-75
2022/08/09 06:28:44;;;;;;;9.60;6.10;;;;;;;24.30;39.69;94105.38;5044685;28;21314;-75
2022/08/09 06:31:09;;;;;;;11.93;6.97;;;;;;;24.25;40.52;94111.22;5066001;28;20028;-75
2022/08/09 06:33:35;;;;;;;10.75;7.53;;;;;;;24.16;40.08;94100.00;5061502;28;20033;-75
2022/08/09 06:36:00;;;;;;;12.55;8.32;;;;;;;24.21;39.95;94091.44;5034692;28;20031;-75
2022/08/09 06:38:26;;;;;;;9.82;6.85;;;;;;;24.48;40.12;94103.41;5062556;28;20027;-75
2022/08/09 06:40:51;;;;;;;10.45;7.22;;;;;;;24.37;40.29;94089.84;5060240;28;20117;-75
2022/08/09 06:43:17;;;;;;;13.00;7.40;;;;;;;24.38;40.53;94112.38;5062210;28;20035;-75
2022/08/09 06:45:43;;;;;;;13.63;8.95;;;;;;;24.28;39.15;94107.75;5061515;28;20064;-75
2022/08/09 06:48:08;;;;;;;10.88;8.65;;;;;;;24.26;39.94;94093.75;5062123;28;20330;-75
2022/08/09 06:50:33;;;;;;;9.27;7.18;;;;;;;24.15;39.86;94098.47;5061465;28;20028;-75
2022/08/09 06:53:00;;;;;;;10.80;7.90;;;;;;;24.51;40.02;94096.38;5062313;28;20464;-75
2022/08/09 06:55:30;;;;;;;11.60;9.02;;;;;;;24.68;40.24;94104.50;5040139;28;20050;-74
2022/08/09 06:57:57;;;;;;;11.10;7.80;;;;;;;24.25;39.58;94070.47;5060036;28;20024;-75
2022/08/09 07:00:22;;;;;;;12.38;10.23;;;;;;;24.50;39.83;94103.78;5062489;28;20476;-75
2022/08/09 07:02:49;;;;;;;11.35;8.70;;;;;;;24.61;38.92;94090.13;5060543;28;20028;-75
2022/08/09 07:05:14;;;;;;;13.45;9.57;;;;;;;24.64;39.84;94081.94;5042150;28;20514;-75
2022/08/09 07:07:40;;;;;;;12.68;10.80;;;;;;;24.89;39.19;94103.63;5062941;28;20493;-75
2022/08/09 07:10:06;;;;;;;14.40;12.40;;;;;;;25.16;38.47;94106.59;5062426;28;20029;-75
2022/08/09 07:12:31;;;;;;;16.05;11.55;;;;;;;25.34;37.59;94104.53;5031649;28;20028;-75
2022/08/09 07:14:56;;;;;;;14.50;12.60;;;;;;;25.45;37.21;94102.50;5062767;28;20036;-75
2022/08/09 07:17:22;;;;;;;14.43;12.27;;;;;;;25.57;36.49;94098.50;5062036;28;20115;-74
2022/08/09 07:19:48;;;;;;;13.82;12.40;;;;;;;25.30;35.90;94090.16;5077109;28;20097;-75
2022/08/09 07:22:13;;;;;;;16.10;12.98;;;;;;;25.06;37.36;94104.69;5063893;28;20119;-75
2022/08/09 07:24:38;;;;;;;13.32;10.75;;;;;;;24.97;37.65;94098.94;5063668;28;20027;-76
2022/08/09 07:27:04;;;;;;;13.27;10.70;;;;;;;25.09;37.54;94101.16;5077993;28;20033;-75
2022/08/09 07:29:29;;;;;;;10.60;9.23;;;;;;;25.13;38.01;94088.31;5063943;28;20040;-76
2022/08/09 07:31:56;;;;;;;13.95;9.05;;;;;;;25.49;38.28;94108.69;5062653;28;20058;-75
2022/08/09 07:34:22;;;;;;;12.38;9.05;;;;;;;25.58;37.03;94106.28;5065089;28;20047;-75
2022/08/09 07:36:48;;;;;;;12.18;8.43;;;;;;;25.52;36.11;94102.44;5062621;28;20343;-76
2022/08/09 07:39:14;;;;;;;12.05;9.35;;;;;;;25.52;37.01;94104.38;5064609;28;20039;-76
2022/08/09 07:41:39;;;;;;;10.25;7.80;;;;;;;25.65;36.15;94111.69;5061055;28;20043;-75
2022/08/09 07:44:04;;;;;;;9.43;7.85;;;;;;;25.81;36.78;94113.13;5064083;28;20031;-76
2022/08/09 07:46:30;;;;;;;8.60;6.93;;;;;;;25.76;36.18;94091.75;5063132;28;20085;-75
2022/08/09 07:48:55;;;;;;;8.73;7.28;;;;;;;25.76;36.24;94102.66;5061846;28;20124;-76
2022/08/09 07:51:21;;;;;;;8.93;6.63;;;;;;;25.53;35.89;94082.22;5057239;28;20036;-75
2022/08/09 07:53:49;;;;;;;9.85;6.57;;;;;;;25.78;36.13;94103.78;5061027;28;20055;-76
2022/08/09 07:56:15;;;;;;;6.80;5.38;;;;;;;25.61;36.01;94080.22;5060897;28;20757;-75
2022/08/09 07:58:40;;;;;;;6.95;4.80;;;;;;;25.50;36.07;94093.91;5061704;28;20031;-76
2022/08/09 08:01:05;;;;;;;10.32;5.28;;;;;;;25.57;36.26;94091.13;5062921;28;20020;-76
2022/08/09 08:03:31;;;;;;;6.47;5.88;;;;;;;25.89;35.47;94101.00;5063664;28;20471;-76
2022/08/09 08:05:56;;;;;;;6.28;5.25;;;;;;;26.05;33.96;94106.69;5060114;28;20024;-75
2022/08/09 08:08:23;;;;;;;8.50;5.15;;;;;;;25.97;33.78;94075.22;5055817;28;21074;-76
2022/08/09 08:10:49;;;;;;;7.97;4.05;;;;;;;26.17;33.42;94103.44;5057792;28;20443;-76
2022/08/09 08:13:15;;;;;;;5.55;3.92;;;;;;;26.20;33.09;94104.59;5060701;28;20024;-76
2022/08/09 08:15:40;;;;;;;5.43;3.60;;;;;;;26.22;33.13;94094.81;5059822;28;20399;-76
2022/08/09 08:18:06;;;;;;;5.75;4.35;;;;;;;26.24;33.88;94092.47;5063258;28;20500;-76
2022/08/09 08:20:31;;;;;;;4.80;4.05;;;;;;;26.21;33.70;94093.28;5067246;28;20037;-76
2022/08/09 08:23:03;;;;;;;4.05;3.28;;;;;;;26.26;33.63;94095.56;5065927;28;20028;-75
2022/08/09 08:25:28;;;;;;;5.88;4.00;;;;;;;26.16;33.92;94077.34;5046951;28;20467;-76
2022/08/09 08:27:54;;;;;;;4.68;3.70;;;;;;;26.10;35.08;94065.38;5063110;28;20027;-76
2022/08/09 08:30:19;;;;;;;4.35;3.53;;;;;;;26.26;33.97;94079.19;5063633;28;20104;-76
2022/08/09 08:32:45;;;;;;;5.35;2.85;;;;;;;26.17;33.57;94068.00;5064288;28;20084;-76
2022/08/09 08:35:11;;;;;;;4.07;3.13;;;;;;;26.26;33.30;94079.19;5064796;28;20089;-76
2022/08/09 08:37:36;;;;;;;3.75;3.03;;;;;;;26.33;32.63;94068.22;5067007;28;20032;-76
2022/08/09 08:40:03;;;;;;;3.35;2.75;;;;;;;26.39;32.01;94072.06;5061726;28;20504;-76
2022/08/09 08:42:30;;;;;;;3.15;1.98;;;;;;;26.26;31.01;94057.38;5053590;28;20028;-76
2022/08/09 08:44:56;;;;;;;2.55;2.35;;;;;;;26.19;30.21;94073.84;5062574;28;20055;-76
2022/08/09 08:47:24;;;;;;;1.80;1.70;;;;;;;26.27;30.64;94069.84;5045505;28;20028;-76
2022/08/09 08:49:50;;;;;;;4.00;2.13;;;;;;;26.33;29.43;94070.16;5056483;28;20491;-76
2022/08/09 08:52:18;;;;;;;3.08;2.20;;;;;;;26.39;29.24;94072.06;5059917;28;20650;-76
2022/08/09 08:54:43;;;;;;;6.45;3.30;;;;;;;26.23;30.22;94049.25;5058152;28;20028;-77
2022/08/09 08:57:09;;;;;;;2.55;2.35;;;;;;;26.32;30.17;94074.06;5041967;28;20029;-76
2022/08/09 08:59:35;;;;;;;3.00;2.22;;;;;;;26.29;30.06;94053.09;5059526;28;20035;-76
2022/08/09 09:02:03;;;;;;;3.78;2.35;;;;;;;26.26;29.45;94041.03;5058368;28;20115;-76
2022/08/09 09:04:31;;;;;;;3.22;2.22;;;;;;;26.47;30.31;94065.34;5064042;28;20020;-76
2022/08/09 09:07:06;;;;;;;2.92;1.98;;;;;;;26.45;28.70;94040.41;5063007;28;20056;-76
2022/08/09 09:09:34;;;;;;;2.80;2.28;;;;;;;26.53;28.56;94055.53;5050201;28;20101;-76
2022/08/09 09:12:00;;;;;;;2.35;1.95;;;;;;;26.49;28.48;94043.91;5061661;28;20024;-76
2022/08/09 09:14:28;;;;;;;4.60;2.05;;;;;;;26.50;27.72;94044.66;5066552;28;20103;-76
2022/08/09 09:16:54;;;;;;;4.88;2.72;;;;;;;26.45;30.00;94034.94;5059879;28;20058;-76
2022/08/09 09:19:19;;;;;;;2.20;1.80;;;;;;;26.41;27.88;94008.91;5064145;28;20452;-77
2022/08/09 09:22:12;;;;;;;4.53;2.05;;;;;;;26.77;26.23;94056.41;5060165;28;20406;-76
2022/08/09 09:24:42;;;;;;;4.57;1.92;;;;;;;26.68;29.08;94044.44;5032817;28;20521;-77
2022/08/09 09:27:10;;;;;;;1.95;1.60;;;;;;;26.78;25.94;94040.81;5060127;28;20036;-76
2022/08/09 09:29:38;;;;;;;2.45;1.30;;;;;;;26.81;28.84;94037.25;5060888;28;20456;-76
2022/08/09 09:32:04;;;;;;;1.67;1.52;;;;;;;26.91;26.33;94033.59;5054289;28;20028;-77
2022/08/09 09:34:30;;;;;;;1.73;1.63;;;;;;;26.84;26.77;94009.13;5061020;28;20028;-76
2022/08/09 09:36:56;;;;;;;2.80;1.70;;;;;;;26.82;25.99;94011.50;5061286;28;20556;-76
2022/08/09 09:39:23;;;;;;;6.78;1.90;;;;;;;26.71;27.32;94032.69;5059027;28;20515;-75
2022/08/09 09:41:49;;;;;;;18.05;2.55;;;;;;;26.54;27.31;94010.69;5061826;28;20139;-75
2022/08/09 09:44:28;;;;;;;3.60;2.30;;;;;;;26.83;26.75;94034.88;5059877;28;20032;-75
2022/08/09 09:47:15;;;;;;;1.88;1.20;;;;;;;26.86;23.81;94023.13;5064788;28;20044;-76
2022/08/09 09:49:49;;;;;;;2.17;1.00;;;;;;;26.98;23.25;94019.84;5065922;28;20111;-76
2022/08/09 09:52:14;;;;;;;1.60;1.50;;;;;;;26.90;23.79;94002.81;5062848;28;20039;-75
2022/08/09 09:54:42;;;;;;;2.78;1.30;;;;;;;27.09;23.48;94025.94;5061830;28;20389;-75
2022/08/09 09:57:22;;;;;;;1.40;1.27;;;;;;;27.07;24.54;94011.94;5064360;28;20024;-75
2022/08/09 09:59:50;;;;;;;1.73;1.10;;;;;;;27.16;23.45;94000.50;5042611;28;20017;-75
2022/08/09 10:02:17;;;;;;;2.38;1.27;;;;;;;27.05;26.96;94008.84;5062771;28;20024;-75
2022/08/09 10:04:43;;;;;;;1.55;1.15;;;;;;;26.94;25.06;93994.56;5063590;28;20515;-75
2022/08/09 10:07:23;;;;;;;1.92;1.05;;;;;;;27.10;23.60;93996.69;5064628;28;20114;-75
2022/08/09 10:09:53;;;;;;;2.65;1.38;;;;;;;27.13;25.72;94007.53;5058391;28;20093;-76
2022/08/09 10:12:24;;;;;;;2.90;1.40;;;;;;;27.13;25.04;94010.28;5060433;28;20421;-75
2022/08/09 10:14:50;;;;;;;2.42;1.30;;;;;;;27.07;24.70;94013.91;5061125;28;20484;-75
2022/08/09 10:17:20;;;;;;;2.20;1.35;;;;;;;27.11;25.37;94012.66;5042585;28;20078;-75
2022/08/09 10:19:45;;;;;;;3.10;1.35;;;;;;;27.11;25.97;94000.97;5041551;28;20392;-75
2022/08/09 10:22:11;;;;;;;2.22;1.13;;;;;;;27.04;25.42;93990.91;5059986;28;20032;-75
2022/08/09 10:24:38;;;;;;;3.60;1.40;;;;;;;27.12;25.25;93986.13;5060047;28;20029;-74
2022/08/09 10:27:04;;;;;;;1.80;1.48;;;;;;;27.28;23.78;94010.81;5057859;28;20535;-75
2022/08/09 10:29:32;;;;;;;1.38;0.90;;;;;;;27.28;22.92;94014.31;5060638;28;21021;-75
2022/08/09 10:31:57;;;;;;;1.25;0.98;;;;;;;27.14;23.65;94005.59;5061059;28;20111;-75
2022/08/09 10:34:24;;;;;;;1.33;1.00;;;;;;;26.64;23.74;93981.00;5061075;28;20651;-75
2022/08/09 10:36:55;;;;;;;4.28;1.30;;;;;;;26.84;24.66;94007.16;5058740;28;20531;-74
2022/08/09 10:39:23;;;;;;;2.85;1.08;;;;;;;26.90;24.69;93996.56;5060225;28;20111;-75
2022/08/09 10:41:48;;;;;;;5.30;1.20;;;;;;;26.79;24.96;93991.25;5044685;28;20389;-74
2022/08/09 10:44:20;;;;;;;1.45;1.20;;;;;;;26.80;24.86;93986.59;5056819;28;20031;-75
2022/08/09 10:46:48;;;;;;;6.25;1.92;;;;;;;26.63;25.63;94010.22;5060209;28;20605;-74
2022/08/09 10:49:16;;;;;;;1.45;1.10;;;;;;;26.85;24.79;94013.41;5060688;28;20035;-75
2022/08/09 10:51:51;;;;;;;3.13;1.10;;;;;;;26.96;23.99;94005.84;5057070;28;20027;-75
2022/08/09 10:54:22;;;;;;;1.90;1.15;;;;;;;26.99;24.50;94003.03;5044061;28;20165;-75
2022/08/09 10:57:06;;;;;;;1.50;1.33;;;;;;;26.81;25.29;93996.31;5066907;28;20019;-75
2022/08/09 10:59:32;;;;;;;1.42;1.17;;;;;;;26.72;25.08;93991.38;5061516;28;20032;-76
2022/08/09 11:01:58;;;;;;;1.40;1.30;;;;;;;26.93;24.44;93996.53;5044270;28;20487;-76
2022/08/09 11:04:28;;;;;;;1.42;1.00;;;;;;;26.70;24.35;94003.88;5064701;28;20096;-74
2022/08/09 11:07:14;;;;;;;1.00;0.90;;;;;;;26.85;25.10;94005.22;5058429;28;20039;-75
2022/08/09 11:09:42;;;;;;;1.33;1.00;;;;;;;26.95;25.11;94004.28;5062010;28;20043;-75
2022/08/09 11:12:17;;;;;;;1.35;1.00;;;;;;;27.07;24.89;94011.94;5061552;28;20037;-75
2022/08/09 11:14:43;;;;;;;7.07;1.85;;;;;;;27.09;25.24;94006.81;5061779;28;20545;-75
2022/08/09 11:17:14;;;;;;;2.55;1.70;;;;;;;27.07;25.39;94006.47;5045543;28;20039;-75
2022/08/09 11:19:49;;;;;;;2.03;1.50;;;;;;;27.16;25.53;94005.94;5065846;28;20033;-75
2022/08/09 11:22:17;;;;;;;;;;;;;;;27.17;26.07;94008.28;5066670;28;20025;-75
2022/08/09 11:25:12;;;;;;;2.75;1.33;;;;;;;27.09;25.40;94001.38;5078837;28;19963;-75
2022/08/09 11:27:43;;;;;;;3.25;1.27;;;;;;;27.12;25.45;93997.81;5036873;28;20024;-75
2022/08/09 11:30:11;;;;;;;3.38;1.88;;;;;;;27.08;26.22;93990.88;5062066;28;20021;-75
2022/08/09 11:32:49;;;;;;;2.13;1.42;;;;;;;27.22;25.53;94002.34;5062712;28;20024;-76
2022/08/09 11:35:28;;;;;;;1.65;1.40;;;;;;;27.30;25.50;93987.38;5063441;28;20103;-75